Time;durP1;ratioP1;P1;durP2;ratioP2;P2;SDS_P1;SDS_P2;PMS_P1;PMS_P2;Temp;Humidity;BMP_temperature;BMP_pressure;BME280_temperature;BME280_humidity;BME280_pressure;Samples;Min_cycle;Max_cycle;Signal;HPM_P1;HPM_P2
2024/01/01 00:00:29;;;;;;;72.95;30.83;;;;;;;5.65;100.00;97413.91;5116146;27;20027;-80
2024/01/01 00:02:55;;;;;;;75.95;31.98;;;;;;;5.36;100.00;97423.13;5117230;27;20057;-81
2024/01/01 00:05:24;;;;;;;105.68;46.00;;;;;;;5.02;100.00;97420.19;5112011;27;20645;-80
2024/01/01 00:07:51;;;;;;;104.75;47.15;;;;;;;4.81;100.00;97437.84;5116030;27;20089;-79
2024/01/01 00:10:20;;;;;;;60.90;27.77;;;;;;;4.77;100.00;97432.72;5127629;27;20018;-79
2024/01/01 00:12:46;;;;;;;67.65;31.63;;;;;;;4.69;100.00;97430.41;5110000;27;20022;-81
2024/01/01 00:15:12;;;;;;;67.78;31.83;;;;;;;4.60;100.00;97433.41;5110008;27;20451;-80
2024/01/01 00:17:39;;;;;;;65.15;30.33;;;;;;;4.57;100.00;97419.44;5113171;27;20022;-81
2024/01/01 00:20:05;;;;;;;51.88;21.67;;;;;;;4.59;100.00;97421.09;5113160;27;20046;-81
2024/01/01 00:22:31;;;;;;;46.40;22.80;;;;;;;4.69;100.00;97430.41;5113579;27;20601;-80
2024/01/01 00:24:58;;;;;;;53.38;24.73;;;;;;;4.75;100.00;97435.44;5133607;27;20106;-80
2024/01/01 00:27:24;;;;;;;63.22;29.15;;;;;;;4.78;100.00;97440.63;5133448;27;20022;-81
2024/01/01 00:29:53;;;;;;;55.78;25.65;;;;;;;4.76;100.00;97436.31;5133843;27;20038;-81
2024/01/01 00:32:18;;;;;;;47.00;21.90;;;;;;;4.69;100.00;97433.06;5133870;27;20045;-81
2024/01/01 00:34:47;;;;;;;51.05;25.33;;;;;;;4.76;100.00;97446.91;5114597;27;20031;-80
2024/01/01 00:37:12;;;;;;;57.40;28.20;;;;;;;4.78;100.00;97445.06;5109830;27;20026;-81
2024/01/01 00:39:38;;;;;;;62.17;30.65;;;;;;;4.77;100.00;97443.31;5126752;27;20034;-81
2024/01/01 00:42:04;;;;;;;68.00;32.80;;;;;;;4.72;100.00;97446.16;5115723;27;20034;-81
2024/01/01 00:44:32;;;;;;;77.68;36.08;;;;;;;4.71;100.00;97439.13;5116673;27;20033;-81
2024/01/01 00:46:58;;;;;;;112.20;49.55;;;;;;;4.71;100.00;97455.03;5116287;27;20037;-81
2024/01/01 00:49:24;;;;;;;109.90;50.55;;;;;;;4.65;100.00;97449.09;5127787;27;20035;-81
2024/01/01 00:51:49;;;;;;;119.28;52.78;;;;;;;4.48;100.00;97444.50;5107966;27;20027;-81
2024/01/01 00:54:15;;;;;;;124.78;52.50;;;;;;;4.40;100.00;97435.97;5133611;27;20062;-81
2024/01/01 00:56:41;;;;;;;121.68;52.70;;;;;;;4.40;100.00;97443.94;5116458;27;20023;-81
2024/01/01 00:59:06;;;;;;;124.95;52.78;;;;;;;4.30;100.00;97429.34;5110274;27;20026;-81
2024/01/01 01:01:32;;;;;;;101.93;45.95;;;;;;;4.24;100.00;97446.34;5113540;27;20033;-80
2024/01/01 01:03:57;;;;;;;101.80;45.88;;;;;;;4.17;100.00;97454.56;5116594;27;20061;-82
2024/01/01 01:06:23;;;;;;;112.03;52.20;;;;;;;4.21;100.00;97432.34;5116446;27;20085;-80
2024/01/01 01:08:49;;;;;;;90.88;41.25;;;;;;;4.11;100.00;97455.66;5116474;27;20058;-81
2024/01/01 01:11:14;;;;;;;101.40;43.85;;;;;;;4.17;100.00;97441.31;5127696;27;20027;-81
2024/01/01 01:13:40;;;;;;;91.82;41.00;;;;;;;4.11;100.00;97436.25;5116072;27;20083;-82
2024/01/01 01:16:06;;;;;;;89.45;40.95;;;;;;;4.11;100.00;97433.63;5125408;28;20027;-81
2024/01/01 01:18:31;;;;;;;89.88;42.13;;;;;;;4.07;100.00;97442.59;5115629;27;20109;-80
2024/01/01 01:20:57;;;;;;;88.53;39.65;;;;;;;4.08;100.00;97425.78;5133233;27;20015;-80
2024/01/01 01:23:23;;;;;;;77.38;37.40;;;;;;;4.08;100.00;97431.09;5127501;27;20098;-81
2024/01/01 01:25:49;;;;;;;82.28;37.63;;;;;;;4.10;100.00;97431.88;5110649;27;20031;-80
2024/01/01 01:28:24;;;;;;;71.38;32.28;;;;;;;4.06;100.00;97433.78;5116075;27;20168;-80
2024/01/01 01:30:50;;;;;;;93.13;38.95;;;;;;;4.06;100.00;97414.41;5133328;27;20034;-79
2024/01/01 01:33:16;;;;;;;91.15;38.60;;;;;;;4.13;100.00;97434.41;5112556;27;20027;-81
2024/01/01 01:35:42;;;;;;;102.05;44.80;;;;;;;4.02;100.00;97410.16;5111155;27;20061;-80
2024/01/01 01:38:08;;;;;;;67.88;30.30;;;;;;;3.94;100.00;97422.81;5112518;27;20047;-80
2024/01/01 01:40:33;;;;;;;62.97;28.00;;;;;;;3.97;100.00;97422.72;5103671;28;20043;-80
2024/01/01 01:42:59;;;;;;;71.18;31.92;;;;;;;3.94;100.00;97407.78;5112767;27;20027;-80
2024/01/01 01:45:25;;;;;;;58.22;27.50;;;;;;;4.02;100.00;97412.81;5115746;27;20046;-81
2024/01/01 01:47:52;;;;;;;65.18;27.63;;;;;;;4.07;100.00;97408.19;5115703;27;20027;-81
2024/01/01 01:50:17;;;;;;;55.92;27.25;;;;;;;4.06;100.00;97404.66;5115807;27;20026;-81
2024/01/01 01:52:44;;;;;;;51.83;23.27;;;;;;;3.92;100.00;97391.13;5118814;27;20493;-81
2024/01/01 01:55:11;;;;;;;57.08;24.60;;;;;;;3.98;100.00;97398.81;5112089;27;20061;-80
2024/01/01 01:57:38;;;;;;;46.08;23.40;;;;;;;4.04;100.00;97408.31;5133223;27;20023;-81
2024/01/01 02:00:05;;;;;;;59.85;26.35;;;;;;;3.95;100.00;97409.53;5116097;27;20019;-81
2024/01/01 02:02:34;;;;;;;65.95;28.65;;;;;;;3.98;100.00;97406.75;5114141;27;20037;-81
2024/01/01 02:05:00;;;;;;;51.45;24.58;;;;;;;3.93;100.00;97395.50;5119732;27;20027;-81
2024/01/01 02:07:25;;;;;;;45.80;19.83;;;;;;;3.97;100.00;97394.44;5119212;27;20150;-82
2024/01/01 02:09:51;;;;;;;49.40;22.92;;;;;;;4.19;100.00;97407.72;5116593;27;20543;-81
2024/01/01 02:12:16;;;;;;;44.28;19.75;;;;;;;4.32;100.00;97404.53;5119549;27;20022;-82
2024/01/01 02:14:42;;;;;;;43.13;19.80;;;;;;;4.41;100.00;97392.72;5116384;27;20019;-82
2024/01/01 02:17:08;;;;;;;48.08;21.70;;;;;;;4.50;100.00;97402.94;5119417;27;20031;-81
2024/01/01 02:19:33;;;;;;;47.58;23.00;;;;;;;4.57;100.00;97395.59;5118989;27;20027;-82
2024/01/01 02:22:00;;;;;;;56.78;23.42;;;;;;;4.49;100.00;97410.94;5113341;27;20023;-81
2024/01/01 02:24:25;;;;;;;53.15;24.13;;;;;;;4.46;100.00;97396.03;5116213;27;20109;-80
2024/01/01 02:26:51;;;;;;;39.35;18.23;;;;;;;4.47;100.00;97403.06;5130510;27;20110;-82
2024/01/01 02:29:19;;;;;;;41.30;18.27;;;;;;;4.47;100.00;97403.06;5136364;27;20022;-82
2024/01/01 02:31:46;;;;;;;39.58;20.10;;;;;;;4.40;100.00;97396.25;5118895;27;20371;-82
2024/01/01 02:34:12;;;;;;;50.38;22.27;;;;;;;4.15;100.00;97390.25;5136240;27;20022;-80
2024/01/01 02:36:39;;;;;;;52.00;22.85;;;;;;;4.15;100.00;97406.13;5130269;27;20018;-81
2024/01/01 02:39:05;;;;;;;42.75;20.70;;;;;;;4.14;100.00;97402.59;5116134;27;20484;-81
2024/01/01 02:41:34;;;;;;;44.88;22.20;;;;;;;3.97;100.00;97417.41;5118589;27;20087;-81
2024/01/01 02:44:01;;;;;;;52.58;22.77;;;;;;;4.09;100.00;97411.66;5118905;27;20030;-81
2024/01/01 02:46:26;;;;;;;49.53;21.88;;;;;;;4.02;100.00;97410.16;5118573;27;20031;-81
2024/01/01 02:48:52;;;;;;;46.00;20.88;;;;;;;4.10;100.00;97413.34;5135572;27;20030;-80
2024/01/01 02:51:18;;;;;;;45.45;17.85;;;;;;;4.16;100.00;97414.00;5117446;27;20037;-82
2024/01/01 02:53:43;;;;;;;39.10;19.65;;;;;;;4.22;100.00;97412.88;5118528;27;20037;-81
2024/01/01 02:56:19;;;;;;;34.67;16.88;;;;;;;4.22;100.00;97410.22;5135713;27;20029;-81
2024/01/01 02:58:45;;;;;;;33.63;15.90;;;;;;;4.20;100.00;97409.44;5118854;27;20023;-81
2024/01/01 03:01:11;;;;;;;31.23;15.20;;;;;;;4.59;100.00;97393.75;5115112;27;20022;-82
2024/01/01 03:03:37;;;;;;;28.38;14.25;;;;;;;4.58;100.00;97392.03;5109453;27;20090;-81
2024/01/01 03:06:03;;;;;;;25.83;13.15;;;;;;;4.61;100.00;97378.66;5117723;27;20031;-81
2024/01/01 03:08:29;;;;;;;30.00;15.25;;;;;;;4.76;100.00;97381.56;5116219;27;20355;-81
2024/01/01 03:10:54;;;;;;;27.88;14.00;;;;;;;4.87;100.00;97383.72;5114804;27;20027;-80
2024/01/01 03:13:20;;;;;;;28.23;13.75;;;;;;;4.90;100.00;97376.53;5106412;27;20432;-81
2024/01/01 03:15:45;;;;;;;29.42;15.98;;;;;;;4.95;100.00;97372.81;5113363;27;20041;-81
2024/01/01 03:18:12;;;;;;;27.65;14.43;;;;;;;4.88;100.00;97378.38;5135402;27;20054;-81
2024/01/01 03:20:38;;;;;;;23.40;10.82;;;;;;;4.75;100.00;97365.69;5132220;27;20084;-81
2024/01/01 03:23:04;;;;;;;21.85;10.07;;;;;;;4.80;100.00;97364.56;5114555;27;20034;-81
2024/01/01 03:25:30;;;;;;;21.30;10.90;;;;;;;4.69;100.00;97374.78;5131706;27;20038;-81
2024/01/01 03:27:56;;;;;;;18.00;9.30;;;;;;;4.67;100.00;97360.75;5097577;27;20023;-81
2024/01/01 03:30:23;;;;;;;19.70;10.45;;;;;;;4.65;100.00;97356.41;5134775;27;20102;-81
2024/01/01 03:32:50;;;;;;;20.50;9.68;;;;;;;4.70;100.00;97350.00;5118265;27;20050;-80
2024/01/01 03:35:16;;;;;;;19.63;9.38;;;;;;;4.72;100.00;97353.44;5117739;27;20035;-81
2024/01/01 03:37:42;;;;;;;19.85;9.82;;;;;;;4.72;100.00;97361.41;5106394;27;20100;-81
2024/01/01 03:40:12;;;;;;;24.08;11.18;;;;;;;4.59;100.00;97364.59;5115628;27;20073;-82
2024/01/01 03:42:38;;;;;;;24.50;12.80;;;;;;;4.60;100.00;97351.31;5115206;27;20027;-81
2024/01/01 03:45:04;;;;;;;29.10;12.85;;;;;;;4.53;100.00;97341.88;5129122;27;20148;-81
2024/01/01 03:47:32;;;;;;;27.83;13.07;;;;;;;4.55;100.00;97336.56;5116268;27;20090;-82
2024/01/01 03:49:57;;;;;;;25.23;12.13;;;;;;;4.58;100.00;97337.28;5110941;27;20087;-81
2024/01/01 03:52:24;;;;;;;25.73;12.05;;;;;;;4.80;100.00;97332.78;5134697;27;20031;-82
2024/01/01 03:54:49;;;;;;;26.40;12.02;;;;;;;4.82;100.00;97325.66;5117524;27;20114;-82
2024/01/01 03:57:15;;;;;;;23.48;11.13;;;;;;;4.86;100.00;97319.28;5117513;27;20031;-81
2024/01/01 03:59:41;;;;;;;20.60;9.60;;;;;;;5.19;100.00;97318.75;5117081;27;20030;-82
2024/01/01 04:02:09;;;;;;;21.63;10.98;;;;;;;5.42;100.00;97321.22;5117545;27;20039;-81
2024/01/01 04:04:35;;;;;;;27.60;12.70;;;;;;;5.53;100.00;97328.69;5111332;27;20034;-81
2024/01/01 04:07:01;;;;;;;27.00;12.38;;;;;;;5.52;100.00;97329.63;5110381;27;20047;-81
2024/01/01 04:09:26;;;;;;;24.70;12.57;;;;;;;5.57;100.00;97330.28;5117467;27;20168;-81
2024/01/01 04:11:52;;;;;;;20.52;9.80;;;;;;;5.64;100.00;97321.97;5108779;27;20027;-81
2024/01/01 04:14:17;;;;;;;20.67;11.23;;;;;;;5.77;100.00;97316.94;5134300;27;20038;-81
2024/01/01 04:16:43;;;;;;;30.88;11.93;;;;;;;5.88;100.00;97328.81;5133711;27;20525;-81
2024/01/01 04:19:09;;;;;;;25.90;12.32;;;;;;;5.83;100.00;97322.84;5117291;27;20030;-81
2024/01/01 04:21:39;;;;;;;22.75;11.95;;;;;;;5.96;100.00;97318.72;5112807;27;20497;-81
2024/01/01 04:24:08;;;;;;;28.23;13.15;;;;;;;6.06;100.00;97334.19;5117376;27;20050;-81
2024/01/01 04:26:34;;;;;;;18.25;9.40;;;;;;;6.14;100.00;97332.03;5116178;27;20109;-81
2024/01/01 04:29:00;;;;;;;13.18;7.07;;;;;;;6.35;100.00;97338.97;5109435;27;20110;-81
2024/01/01 04:31:25;;;;;;;18.70;9.27;;;;;;;6.64;100.00;97330.44;5116995;27;20482;-81
2024/01/01 04:33:51;;;;;;;18.83;9.98;;;;;;;6.68;100.00;97317.81;5116550;27;21095;-82
2024/01/01 04:36:16;;;;;;;20.77;9.32;;;;;;;6.81;100.00;97330.44;5116962;27;20087;-81
2024/01/01 04:38:42;;;;;;;13.20;7.38;;;;;;;7.14;100.00;97322.53;5116877;27;20117;-81
2024/01/01 04:41:09;;;;;;;16.13;8.07;;;;;;;7.44;100.00;97318.28;5133842;27;20019;-81
2024/01/01 04:43:39;;;;;;;15.35;8.18;;;;;;;7.44;100.00;97312.09;5116937;27;20420;-82
2024/01/01 04:46:04;;;;;;;12.85;7.78;;;;;;;7.39;100.00;97314.13;5114652;27;20039;-82
2024/01/01 04:48:30;;;;;;;19.80;10.20;;;;;;;7.34;100.00;97313.50;5134052;27;20091;-82
2024/01/01 04:50:55;;;;;;;21.35;12.02;;;;;;;7.27;100.00;97320.09;5116408;27;20019;-80
2024/01/01 04:53:21;;;;;;;25.88;12.30;;;;;;;7.19;100.00;97322.28;5116703;27;20030;-81
2024/01/01 04:55:47;;;;;;;30.92;13.07;;;;;;;6.99;100.00;97318.00;5109485;28;20027;-81
2024/01/01 04:58:12;;;;;;;23.33;12.43;;;;;;;6.86;100.00;97319.59;5114994;27;20470;-81
2024/01/01 05:00:38;;;;;;;25.60;11.90;;;;;;;6.76;100.00;97327.16;5116188;27;20031;-81
2024/01/01 05:03:04;;;;;;;21.77;11.73;;;;;;;6.60;100.00;97318.22;5115040;27;20030;-81
2024/01/01 05:05:30;;;;;;;24.58;11.48;;;;;;;6.51;100.00;97322.22;5133859;27;20474;-81
2024/01/01 05:07:55;;;;;;;26.27;12.80;;;;;;;6.43;100.00;97323.50;5115105;27;20102;-81
2024/01/01 05:10:21;;;;;;;25.27;11.85;;;;;;;6.30;100.00;97327.72;5094706;28;20404;-80
2024/01/01 05:12:46;;;;;;;23.42;12.05;;;;;;;6.19;100.00;97324.69;5095829;28;20117;-81
2024/01/01 05:15:12;;;;;;;22.10;12.38;;;;;;;6.10;100.00;97319.81;5084254;28;20114;-81
2024/01/01 05:17:38;;;;;;;42.22;19.88;;;;;;;6.02;100.00;97312.25;5088502;28;20479;-81
2024/01/01 05:20:04;;;;;;;49.35;22.55;;;;;;;6.04;100.00;97322.78;5095042;27;20115;-81
2024/01/01 05:22:30;;;;;;;35.60;17.75;;;;;;;5.93;100.00;97323.31;5088931;28;20406;-82
2024/01/01 05:24:56;;;;;;;35.70;16.73;;;;;;;5.97;100.00;97325.72;5103719;28;20035;-81
2024/01/01 05:27:25;;;;;;;40.75;21.42;;;;;;;5.97;100.00;97331.03;5079189;28;20035;-82
2024/01/01 05:29:51;;;;;;;35.00;16.50;;;;;;;5.96;100.00;97321.38;5090431;27;20034;-82
2024/01/01 05:32:16;;;;;;;25.55;12.27;;;;;;;5.95;100.00;97324.94;5084202;27;20030;-81
2024/01/01 05:34:42;;;;;;;22.67;12.30;;;;;;;5.72;100.00;97325.09;5098438;27;20043;-83
2024/01/01 05:37:08;;;;;;;32.22;13.02;;;;;;;5.54;100.00;97320.66;5084180;27;20422;-81
2024/01/01 05:39:34;;;;;;;26.10;12.95;;;;;;;5.24;100.00;97322.91;5098201;27;20031;-80
2024/01/01 05:41:59;;;;;;;29.17;13.30;;;;;;;4.98;100.00;97319.69;5107794;27;20462;-81
2024/01/01 05:44:25;;;;;;;25.77;12.60;;;;;;;4.96;100.00;97326.81;5084813;27;20401;-81
2024/01/01 05:46:51;;;;;;;26.58;13.57;;;;;;;4.80;100.00;97316.88;5105218;27;20088;-81
2024/01/01 05:49:18;;;;;;;41.58;19.08;;;;;;;4.71;100.00;97327.00;5099366;27;20034;-81
2024/01/01 05:51:47;;;;;;;38.28;18.70;;;;;;;4.63;100.00;97324.69;5100400;27;20030;-81
2024/01/01 05:54:12;;;;;;;51.58;24.20;;;;;;;4.67;100.00;97325.44;5126094;27;20031;-81
2024/01/01 05:56:38;;;;;;;49.83;22.90;;;;;;;4.68;100.00;97328.00;5098086;27;20030;-81
2024/01/01 05:59:04;;;;;;;39.45;19.35;;;;;;;4.74;100.00;97327.75;5090246;28;20030;-80
2024/01/01 06:01:30;;;;;;;38.97;20.42;;;;;;;4.83;100.00;97322.06;5106023;28;20023;-81
2024/01/01 06:03:56;;;;;;;21.88;8.90;;;;;;;5.55;100.00;97329.47;5107984;27;20587;-81
2024/01/01 06:06:25;;;;;;;35.83;16.95;;;;;;;5.74;100.00;97317.09;5113215;27;20179;-81
2024/01/01 06:08:56;;;;;;;33.90;16.92;;;;;;;5.54;100.00;97288.81;5111004;27;20023;-81
2024/01/01 06:11:21;;;;;;;34.75;16.70;;;;;;;5.58;100.00;97301.03;5116963;27;20022;-82
2024/01/01 06:13:47;;;;;;;32.90;16.08;;;;;;;5.58;100.00;97324.91;5096248;27;20490;-82
2024/01/01 06:16:16;;;;;;;28.10;13.25;;;;;;;5.33;100.00;97316.31;5098890;27;20042;-83
2024/01/01 06:18:42;;;;;;;25.88;12.38;;;;;;;5.21;100.00;97319.53;5114808;27;20027;-82
2024/01/01 06:21:08;;;;;;;21.00;11.43;;;;;;;4.94;100.00;97326.91;5117541;27;20027;-81
2024/01/01 06:23:33;;;;;;;21.40;11.15;;;;;;;4.97;100.00;97325.91;5097690;27;20031;-82
2024/01/01 06:26:05;;;;;;;21.02;11.05;;;;;;;4.91;100.00;97333.19;5096620;27;20027;-82
2024/01/01 06:28:30;;;;;;;17.20;9.20;;;;;;;4.89;100.00;97329.75;5100630;27;20469;-81
2024/01/01 06:30:56;;;;;;;18.42;9.05;;;;;;;4.83;100.00;97324.69;5098794;27;20103;-82
2024/01/01 06:33:21;;;;;;;19.00;9.43;;;;;;;4.86;100.00;97327.22;5114129;27;20045;-82
2024/01/01 06:35:47;;;;;;;132.70;48.15;;;;;;;4.78;100.00;97326.69;5115830;27;20027;-82
2024/01/01 06:38:13;;;;;;;36.80;17.83;;;;;;;4.86;100.00;97331.69;5096832;27;20038;-82
2024/01/01 06:40:38;;;;;;;48.65;23.67;;;;;;;4.93;100.00;97328.69;5092317;27;20087;-82
2024/01/01 06:43:04;;;;;;;65.28;29.40;;;;;;;5.01;100.00;97341.63;5112921;27;20046;-82
2024/01/01 06:45:29;;;;;;;59.50;25.77;;;;;;;5.12;100.00;97346.44;5098357;27;20038;-81
2024/01/01 06:47:55;;;;;;;59.65;27.33;;;;;;;5.21;100.00;97332.78;5098494;27;20084;-80
2024/01/01 06:50:22;;;;;;;66.57;30.27;;;;;;;5.38;100.00;97323.13;5097503;27;20084;-82
2024/01/01 06:52:48;;;;;;;61.85;29.58;;;;;;;6.05;100.00;97327.16;5095395;27;20508;-82
2024/01/01 06:55:16;;;;;;;40.90;20.27;;;;;;;7.45;100.00;97327.09;5098066;27;20023;-83
2024/01/01 06:57:41;;;;;;;47.08;23.80;;;;;;;8.81;100.00;97308.78;5098331;27;20035;-84
2024/01/01 07:00:10;;;;;;;38.60;17.80;;;;;;;9.80;100.00;97274.19;5096812;27;20468;-82
2024/01/01 07:02:36;;;;;;;105.13;41.50;;;;;;;10.03;100.00;97278.91;5115009;27;20033;-81
2024/01/01 07:05:02;;;;;;;96.25;40.03;;;;;;;9.25;100.00;97250.94;5098268;27;20030;-84
2024/01/01 07:07:28;;;;;;;68.18;29.77;;;;;;;8.99;100.00;97289.00;5096236;27;20054;-85
2024/01/01 07:09:54;;;;;;;43.35;19.27;;;;;;;8.17;100.00;97290.25;5091213;27;20027;-84
2024/01/01 07:12:23;;;;;;;21.70;11.93;;;;;;;7.50;100.00;97293.13;5097622;27;20511;-85
2024/01/01 07:14:49;;;;;;;18.08;9.98;;;;;;;7.55;100.00;97291.06;5091131;27;20031;-85
2024/01/01 07:17:14;;;;;;;19.23;10.57;;;;;;;7.26;100.00;97281.16;5081241;28;20055;-84
2024/01/01 07:19:40;;;;;;;21.65;10.18;;;;;;;7.00;100.00;97285.16;5077571;28;20131;-85
2024/01/01 07:22:09;;;;;;;17.35;8.80;;;;;;;7.56;100.00;97288.34;5078227;28;20031;-86
2024/01/01 07:24:35;;;;;;;15.45;8.43;;;;;;;9.20;100.00;97285.03;5093292;28;20482;-84
2024/01/01 07:27:01;;;;;;;28.30;13.10;;;;;;;10.78;100.00;97280.25;5080802;28;20106;-83
2024/01/01 07:29:28;;;;;;;15.27;8.85;;;;;;;11.72;100.00;97263.03;5093864;27;20027;-85
2024/01/01 07:31:57;;;;;;;52.65;19.27;;;;;;;12.83;100.00;97242.22;5077222;28;20028;-84
2024/01/01 07:35:04;;;;;;;;;;;;;;;;;;;;;
2024/01/01 08:01:12;;;;;;;20.98;8.93;;;;;;;19.95;51.82;97216.00;4998410;28;20052;-83
2024/01/01 08:04:26;;;;;;;12.70;7.13;;;;;;;20.02;50.64;97217.91;5045356;28;20033;-84
2024/01/01 08:06:52;;;;;;;13.20;7.30;;;;;;;20.48;49.31;97211.19;5020533;28;20073;-76
2024/01/01 08:09:18;;;;;;;13.35;6.97;;;;;;;21.18;47.90;97217.16;5064460;28;20173;-78
2024/01/01 08:11:43;;;;;;;16.70;8.32;;;;;;;21.23;47.55;97216.63;5050477;28;20146;-77
2024/01/01 08:14:12;;;;;;;11.55;7.45;;;;;;;21.13;47.74;97210.50;5051020;28;20037;-82
2024/01/01 08:16:37;;;;;;;13.93;7.55;;;;;;;20.99;48.70;97210.13;5053538;28;20036;-87
2024/01/01 08:19:03;;;;;;;16.02;8.88;;;;;;;21.10;47.37;97211.72;5033708;28;20487;-83
2024/01/01 08:21:29;;;;;;;24.02;16.02;;;;;;;20.33;49.00;97207.38;5033508;28;20159;-83
2024/01/01 08:23:54;;;;;;;15.38;9.50;;;;;;;19.03;52.54;97212.91;5053157;27;20068;-86
2024/01/01 08:26:20;;;;;;;16.95;7.88;;;;;;;18.23;54.23;97219.13;5094418;27;20451;-76
2024/01/01 08:28:51;;;;;;;20.58;11.60;;;;;;;17.50;58.79;97216.38;5110610;27;20027;-83
2024/01/01 08:31:18;;;;;;;10.68;6.57;;;;;;;17.97;58.15;97225.34;5113211;27;20102;-81
2024/01/01 08:33:44;;;;;;;16.65;9.05;;;;;;;18.28;56.80;97219.50;5111418;27;20114;-86
2024/01/01 08:36:10;;;;;;;16.90;9.10;;;;;;;18.53;55.36;97217.97;5111397;28;20064;-84
2024/01/01 08:38:36;;;;;;;12.05;6.82;;;;;;;18.55;55.19;97210.53;5094142;27;20131;-82
2024/01/01 08:41:01;;;;;;;11.80;7.28;;;;;;;18.40;56.10;97209.31;5110410;27;20478;-85
2024/01/01 08:43:29;;;;;;;12.10;7.40;;;;;;;17.96;57.46;97210.13;5093918;27;20035;-85
2024/01/01 08:45:58;;;;;;;10.07;7.00;;;;;;;18.39;56.32;97213.06;5093196;27;20054;-85
2024/01/01 08:48:24;;;;;;;12.15;6.85;;;;;;;18.49;55.79;97218.41;5107671;27;20027;-83
2024/01/01 08:50:49;;;;;;;11.30;7.30;;;;;;;18.46;55.69;97216.00;5129091;27;20092;-85
2024/01/01 08:53:15;;;;;;;11.05;8.23;;;;;;;18.08;57.30;97212.50;5110730;27;20058;-84
2024/01/01 08:55:41;;;;;;;18.33;9.48;;;;;;;17.50;59.84;97208.25;5101665;28;20549;-86
2024/01/01 08:58:06;;;;;;;17.00;8.60;;;;;;;17.28;61.05;97213.00;5090838;28;20110;-85
2024/01/01 09:00:32;;;;;;;12.50;7.53;;;;;;;17.06;62.43;97215.16;5105683;27;20019;-87
2024/01/01 09:02:58;;;;;;;14.27;8.75;;;;;;;16.71;63.25;97204.91;5093868;28;20122;-85
2024/01/01 09:05:24;;;;;;;15.10;8.13;;;;;;;16.52;67.09;97215.66;5086064;28;20054;-84
2024/01/01 09:07:50;;;;;;;11.60;7.47;;;;;;;16.26;68.76;97220.72;5097523;27;20039;-86
2024/01/01 09:10:18;;;;;;;15.27;9.27;;;;;;;15.88;74.06;97215.19;5110833;27;20042;-86
2024/01/01 09:12:44;;;;;;;10.73;6.90;;;;;;;15.50;79.53;97216.72;5114708;27;20025;-84
2024/01/01 09:15:09;;;;;;;14.88;6.78;;;;;;;15.80;79.61;97204.22;5129486;27;20026;-83
2024/01/01 09:17:35;;;;;;;11.73;7.65;;;;;;;15.98;78.65;97216.06;5110804;27;20031;-85
2024/01/01 09:20:03;;;;;;;12.60;7.28;;;;;;;16.09;77.95;97207.88;5114480;27;20038;-83
2024/01/01 09:22:28;;;;;;;13.68;6.88;;;;;;;16.14;75.31;97211.03;5115360;27;20022;-82
2024/01/01 09:24:54;;;;;;;14.48;8.57;;;;;;;15.78;79.43;97203.50;5129682;27;20362;-85
2024/01/01 09:27:20;;;;;;;16.63;8.15;;;;;;;15.93;80.09;97207.53;5137590;27;20050;-82
2024/01/01 09:29:46;;;;;;;19.80;8.95;;;;;;;15.92;81.36;97197.75;5128668;27;20449;-83
2024/01/01 09:32:12;;;;;;;25.38;13.13;;;;;;;16.04;79.92;97183.16;5130864;27;20117;-83
2024/01/01 09:34:37;;;;;;;20.50;11.50;;;;;;;15.90;79.51;97191.63;5111387;27;20529;-85
2024/01/01 09:37:03;;;;;;;16.98;9.38;;;;;;;16.13;77.33;97176.94;5114529;27;20027;-83
2024/01/01 09:39:29;;;;;;;30.80;15.95;;;;;;;16.07;81.32;97178.34;5131156;27;20027;-84
2024/01/01 09:41:54;;;;;;;22.88;13.48;;;;;;;16.86;75.41;97175.63;5131098;27;20035;-84
2024/01/01 09:44:20;;;;;;;19.42;11.82;;;;;;;17.82;68.29;97157.34;5130750;27;20114;-83
2024/01/01 09:46:46;;;;;;;16.02;8.90;;;;;;;18.22;61.76;97151.56;5131307;27;20067;-82
2024/01/01 09:49:12;;;;;;;11.23;6.47;;;;;;;18.13;61.53;97157.91;5128286;27;20060;-83
2024/01/01 09:51:38;;;;;;;11.27;7.32;;;;;;;18.15;60.97;97153.19;5131687;27;20068;-83
2024/01/01 09:54:04;;;;;;;17.75;7.85;;;;;;;17.60;64.01;97155.84;5114605;27;20114;-83
2024/01/01 09:56:29;;;;;;;15.55;8.52;;;;;;;18.06;62.96;97162.19;5112601;27;20054;-83
2024/01/01 09:58:57;;;;;;;17.05;8.73;;;;;;;18.33;62.19;97146.78;5125829;27;20031;-83
2024/01/01 10:01:23;;;;;;;17.17;8.77;;;;;;;18.84;58.80;97143.44;5130995;27;20027;-85
2024/01/01 10:04:07;;;;;;;24.27;13.60;;;;;;;19.03;58.88;97126.16;5131849;27;20037;-83
2024/01/01 10:06:36;;;;;;;27.83;15.38;;;;;;;18.86;58.15;97133.28;5129146;27;20053;-83
2024/01/01 10:09:07;;;;;;;22.00;13.00;;;;;;;19.03;57.98;97122.59;5093997;28;20058;-83
2024/01/01 10:11:33;;;;;;;20.15;9.88;;;;;;;18.70;57.12;97108.75;5112157;27;20141;-85
2024/01/01 10:14:09;;;;;;;23.25;13.35;;;;;;;18.50;58.92;97122.63;5124723;27;20502;-85
2024/01/01 10:16:35;;;;;;;22.27;12.48;;;;;;;18.62;58.68;97126.78;5097204;27;20043;-85
2024/01/01 10:19:01;;;;;;;19.30;9.65;;;;;;;18.81;57.14;97110.38;5098920;27;20035;-76
2024/01/01 10:21:34;;;;;;;14.35;9.10;;;;;;;18.54;57.90;97108.63;5112714;27;20035;-76
2024/01/01 10:24:12;;;;;;;;;;;;;;;18.67;57.95;97100.94;5143646;27;20030;-76
2024/01/01 10:26:41;;;;;;;44.47;22.88;;;;;;;18.72;57.97;97112.19;5123144;27;20405;-77
2024/01/01 10:29:11;;;;;;;17.45;10.20;;;;;;;18.84;56.59;97104.66;5119825;27;20018;-77
2024/01/01 10:31:39;;;;;;;18.98;9.77;;;;;;;19.24;56.51;97107.66;5151519;27;20019;-76
2024/01/01 10:34:05;;;;;;;31.75;16.08;;;;;;;20.37;53.99;97091.06;5133801;27;20018;-76
2024/01/01 10:36:31;;;;;;;25.02;10.50;;;;;;;20.73;50.95;97069.91;5144339;27;20070;-76
2024/01/01 10:38:58;;;;;;;13.35;8.60;;;;;;;20.22;50.85;97079.13;5114766;27;20018;-75
2024/01/01 10:41:23;;;;;;;14.13;9.38;;;;;;;19.73;52.18;97078.13;5132967;27;20396;-76
2024/01/01 10:43:50;;;;;;;20.85;11.65;;;;;;;20.09;51.73;97073.34;5133168;27;20027;-73
2024/01/01 10:46:16;;;;;;;26.20;13.63;;;;;;;21.38;48.71;97066.09;5120249;27;20031;-75
2024/01/01 10:48:43;;;;;;;14.13;9.30;;;;;;;21.69;47.39;97068.91;5130483;27;20161;-75
2024/01/01 10:51:29;;;;;;;14.82;9.18;;;;;;;21.93;46.36;97063.38;5130790;27;20467;-75
2024/01/01 10:54:05;;;;;;;21.52;10.55;;;;;;;22.34;45.71;97044.94;5111248;27;20051;-75
2024/01/01 10:56:54;;;;;;;17.52;9.85;;;;;;;22.71;45.62;97046.91;5095649;27;20118;-74
2024/01/01 10:59:21;;;;;;;19.58;10.27;;;;;;;24.14;42.96;97035.69;5108217;27;20084;-75
2024/01/01 11:01:51;;;;;;;14.90;9.70;;;;;;;23.87;42.31;97039.94;5130154;27;20465;-76
2024/01/01 11:04:21;;;;;;;16.05;10.80;;;;;;;23.76;41.89;97034.97;5118997;27;20026;-75
2024/01/01 11:06:46;;;;;;;29.38;14.73;;;;;;;23.55;42.27;97037.59;5124300;27;20565;-76
2024/01/01 11:09:18;;;;;;;17.23;11.38;;;;;;;23.73;41.85;97038.06;5091969;28;20038;-76
2024/01/01 11:11:49;;;;;;;15.73;10.15;;;;;;;24.09;41.21;97029.91;5109426;28;20097;-76
2024/01/01 11:14:31;;;;;;;15.30;10.15;;;;;;;24.17;40.42;97027.09;5091754;28;20036;-76
2024/01/01 11:17:22;;;;;;;15.25;9.98;;;;;;;23.95;40.80;97026.19;5091423;28;20024;-76
2024/01/01 11:19:48;;;;;;;23.48;11.55;;;;;;;24.80;40.02;97031.75;5091512;28;20084;-76
2024/01/01 11:22:20;;;;;;;17.42;10.00;;;;;;;25.58;38.33;97012.44;5109724;28;20542;-76
2024/01/01 11:24:47;;;;;;;30.60;17.75;;;;;;;24.23;39.11;97010.78;5108988;28;20030;-75
2024/01/01 11:27:47;;;;;;;34.13;22.50;;;;;;;24.14;39.82;97009.22;5091034;28;20050;-76
2024/01/01 11:30:14;;;;;;;23.67;14.25;;;;;;;24.65;39.41;96998.16;5061871;28;20035;-76
2024/01/01 11:32:40;;;;;;;22.98;12.60;;;;;;;26.24;37.12;96996.31;5109381;28;20027;-75
2024/01/01 11:35:08;;;;;;;18.95;8.52;;;;;;;26.81;36.03;96995.81;5109261;28;20478;-76
2024/01/01 11:37:37;;;;;;;;;;;;;;;27.94;34.26;96985.31;5074711;28;20106;-77
2024/01/01 11:40:05;;;;;;;9.30;5.95;;;;;;;27.87;33.67;96984.47;5090897;28;19974;-76
2024/01/01 11:42:31;;;;;;;12.15;6.28;;;;;;;28.06;33.75;96973.63;5091160;28;20501;-76
2024/01/01 11:45:09;;;;;;;10.95;7.30;;;;;;;28.07;33.28;96978.09;5110596;27;20038;-77